AirNav   Pilot Hours Calculator
 
 1245 users online  

0GA6 Sunset Strip Airport
Jersey, Georgia, USA

GOING TO JERSEY?


FAA INFORMATION EFFECTIVE 04 NOVEMBER 2021

Location

FAA Identifier: 0GA6
Lat/Long: 33-44-00.4060N 083-49-07.6470W
33-44.006767N 083-49.127450W
33.7334461,-83.8187908
(estimated)
Elevation: 780 ft. / 237.7 m (surveyed)
Variation: 02W (1985)
From city: 2 miles NW of JERSEY, GA
Time zone: UTC -5 (UTC -4 during Daylight Saving Time)
Zip code: 30014

Airport Operations

Airport use: Private use. Permission required prior to landing
Activation date: 08/1975
Control tower: no
ARTCC: ATLANTA CENTER
FSS: MACON FLIGHT SERVICE STATION
Attendance: UNATNDD
Wind indicator: yes, WINDSOCK
Segmented circle: no

Airport Communications

WX AWOS-3 at CVC (6 nm S): 118.725 (770-385-7057)
WX AWOS-3PT at D73 (7 nm NE): 120.825 (678-635-3668)
WX AWOS-3PT at LZU (16 nm NW): PHONE 770-339-7753
WX AWOS-3 at WDR (17 nm NE): 118.575 (770-868-0642)

Nearby radio navigation aids

VOR radial/distance  VOR name  Freq  Var
PDKr115/25.4PEACHTREE VOR/DME116.6005W
AHNr242/27.8ATHENS VOR/DME109.6000E
ATLr083/31.4ATLANTA VORTAC116.9005W

 
NDB name  Hdg/Dist  Freq  Var  ID
ALCOVY347/6.537003WVOF ...- --- ..-.
BARROW COUNTY228/16.740405WBMW -... -- .--
FLOWERY BRANCH174/28.536503WFKV ..-. -.- ...-

Airport Services

Runway Information

Runway 15/33

Dimensions: 2100 x 150 ft. / 640 x 46 m
Surface: turf
RUNWAY 15  RUNWAY 33
Traffic pattern: leftleft
Obstructions: pline, marked, 350 ft. from runwaytrees, 350 ft. from runway

Airport Ownership and Management from official FAA records

Ownership: Privately-owned
Owner: TOM PRITCHETT
3800 PILOT RD
COVINGTON, GA 30014
Phone 770-490-9249
Manager: TOM PRITCHETT
3800 PILOT RD
COVINGTON, GA 30014
Phone 770-490-9249

Airport Operational Statistics

Aircraft based on the field: 2
Single engine airplanes: 1
Helicopters: 1
    

Additional Remarks

FOR CD CTC ATLANTA APCH AT 678-364-6131.

Instrument Procedures

There are no published instrument procedures at 0GA6.

Some nearby airports with instrument procedures:

KCVC - Covington Municipal Airport (6 nm S)
D73 - Cy Nunnally Memorial Airport (7 nm NE)
KLZU - Gwinnett County Airport-Briscoe Field (16 nm NW)
KWDR - Barrow County Airport (17 nm NE)
52A - Madison Municipal Airport (19 nm E)
 
Loc | Ops | Rwys | IFR | FBO | Links
Com | Nav | Svcs | Stats | Notes
Area around 0GA6 (Sunset Strip Airport)
 
Road maps at: MapQuest Bing Google
 
Aerial photo
No photo
 
Sectional chart

 
Airport distance calculator
Flying to Sunset Strip Airport? Find the distance to fly.

From to 0GA6

Sunrise and sunset
Times for 28-Nov-2021
 Local
(UTC-5)
 Zulu
(UTC)
Morning civil twilight06:5311:53
Sunrise07:2012:20
Sunset17:2622:26
Evening civil twilight17:5322:53

Current date and time
Zulu (UTC)  28-Nov-2021 19:53:33
Local (UTC-5)  28-Nov-2021 14:53:33
 
METAR
KCVC 
6nm S 
281939Z AUTO 27006KT 10SM CLR 13/00 A2995 RMK AO2
KD73 
7nm NE 
281935Z AUTO 29005KT 10SM CLR 14/00 A2995 RMK AO2 T01400004
KLZU 
17nm NW 
281856Z 26007KT 10SM CLR 13/01 A2996 RMK AO2 SLP157 T01330006
KWDR 
17nm NE 
281935Z AUTO 30005KT 10SM CLR 15/M01 A2996 RMK AO2
TAF
KPDK 
26nm W 
281738Z 2818/2918 29007KT P6SM BKN250 FM290200 32006KT P6SM FEW250 FM291500 34009G19KT P6SM SKC
KAHN 
27nm NE 
281738Z 2818/2918 28006KT P6SM BKN250 FM290000 29006KT P6SM FEW250 FM291500 02004KT P6SM SKC FM291700 33004KT P6SM SKC
NOTAMs
Click for the latest NOTAMs
NOTAMs are issued by the DoD/FAA and will open in a separate window not controlled by AirNav.

 

 
 

Would you like to see your business listed on this page?

 If your business provides an interesting product or service to pilots, flight crews, aircraft, or users of the Sunset Strip Airport, you should consider listing it here.  To start the listing process, click on the button below
 
Add a business
 

Other Pages about Sunset Strip Airport

Update a link
 
Copyright © AirNav, LLC. All rights reserved. Privacy Policy  Contact